sensor_id;sensor_type;location;lat;lon;timestamp;P1;durP1;ratioP1;P2;durP2;ratioP2
29422;SDS011;16399;51.686;8.684;2024-01-16T00:00:03;11.00;;;4.35;;
29422;SDS011;16399;51.686;8.684;2024-01-16T00:03:07;10.30;;;4.40;;
29422;SDS011;16399;51.686;8.684;2024-01-16T00:06:09;10.03;;;5.03;;
29422;SDS011;16399;51.686;8.684;2024-01-16T00:09:12;13.70;;;5.33;;
29422;SDS011;16399;51.686;8.684;2024-01-16T00:12:15;10.50;;;5.92;;
29422;SDS011;16399;51.686;8.684;2024-01-16T00:15:17;11.33;;;5.25;;
29422;SDS011;16399;51.686;8.684;2024-01-16T00:18:19;9.83;;;5.90;;
29422;SDS011;16399;51.686;8.684;2024-01-16T00:21:21;13.60;;;6.75;;
29422;SDS011;16399;51.686;8.684;2024-01-16T00:24:24;16.45;;;7.35;;
29422;SDS011;16399;51.686;8.684;2024-01-16T00:27:26;14.18;;;7.30;;
29422;SDS011;16399;51.686;8.684;2024-01-16T00:30:29;11.68;;;7.47;;
29422;SDS011;16399;51.686;8.684;2024-01-16T00:33:31;13.60;;;7.53;;
29422;SDS011;16399;51.686;8.684;2024-01-16T00:36:33;11.53;;;7.62;;
29422;SDS011;16399;51.686;8.684;2024-01-16T00:39:36;16.25;;;7.30;;
29422;SDS011;16399;51.686;8.684;2024-01-16T00:42:38;17.25;;;8.25;;
29422;SDS011;16399;51.686;8.684;2024-01-16T00:45:40;15.43;;;7.50;;
29422;SDS011;16399;51.686;8.684;2024-01-16T00:48:43;11.90;;;7.03;;
29422;SDS011;16399;51.686;8.684;2024-01-16T00:51:45;17.98;;;6.85;;
29422;SDS011;16399;51.686;8.684;2024-01-16T00:54:47;17.23;;;7.67;;
29422;SDS011;16399;51.686;8.684;2024-01-16T00:57:49;14.05;;;7.22;;
29422;SDS011;16399;51.686;8.684;2024-01-16T01:03:56;16.62;;;6.62;;
29422;SDS011;16399;51.686;8.684;2024-01-16T01:06:58;15.80;;;6.90;;
29422;SDS011;16399;51.686;8.684;2024-01-16T01:10:00;17.05;;;7.08;;
29422;SDS011;16399;51.686;8.684;2024-01-16T01:13:03;17.10;;;7.97;;
29422;SDS011;16399;51.686;8.684;2024-01-16T01:16:05;15.80;;;7.70;;
29422;SDS011;16399;51.686;8.684;2024-01-16T01:19:09;12.28;;;6.45;;
29422;SDS011;16399;51.686;8.684;2024-01-16T01:22:11;15.45;;;7.35;;
29422;SDS011;16399;51.686;8.684;2024-01-16T01:25:13;15.95;;;7.20;;
29422;SDS011;16399;51.686;8.684;2024-01-16T01:28:16;12.28;;;5.75;;
29422;SDS011;16399;51.686;8.684;2024-01-16T01:31:18;12.90;;;6.47;;
29422;SDS011;16399;51.686;8.684;2024-01-16T01:34:20;15.58;;;7.05;;
29422;SDS011;16399;51.686;8.684;2024-01-16T01:37:23;14.55;;;7.58;;
29422;SDS011;16399;51.686;8.684;2024-01-16T01:40:25;23.85;;;8.55;;
29422;SDS011;16399;51.686;8.684;2024-01-16T01:43:27;16.50;;;7.65;;
29422;SDS011;16399;51.686;8.684;2024-01-16T01:46:30;21.35;;;8.58;;
29422;SDS011;16399;51.686;8.684;2024-01-16T01:49:35;22.95;;;8.95;;
29422;SDS011;16399;51.686;8.684;2024-01-16T01:52:38;15.87;;;8.67;;
29422;SDS011;16399;51.686;8.684;2024-01-16T01:55:42;19.57;;;9.68;;
29422;SDS011;16399;51.686;8.684;2024-01-16T01:58:45;23.32;;;8.93;;
29422;SDS011;16399;51.686;8.684;2024-01-16T02:04:53;22.60;;;8.78;;
29422;SDS011;16399;51.686;8.684;2024-01-16T02:07:55;22.90;;;8.68;;
29422;SDS011;16399;51.686;8.684;2024-01-16T02:10:58;18.15;;;8.60;;
29422;SDS011;16399;51.686;8.684;2024-01-16T02:14:00;21.73;;;9.55;;
29422;SDS011;16399;51.686;8.684;2024-01-16T02:17:03;18.75;;;7.85;;
29422;SDS011;16399;51.686;8.684;2024-01-16T02:20:06;21.35;;;8.85;;
29422;SDS011;16399;51.686;8.684;2024-01-16T02:23:10;19.40;;;7.90;;
29422;SDS011;16399;51.686;8.684;2024-01-16T02:26:18;16.70;;;8.50;;
29422;SDS011;16399;51.686;8.684;2024-01-16T02:29:18;18.02;;;8.80;;
29422;SDS011;16399;51.686;8.684;2024-01-16T02:32:20;19.92;;;9.30;;
29422;SDS011;16399;51.686;8.684;2024-01-16T02:35:23;24.77;;;10.38;;
29422;SDS011;16399;51.686;8.684;2024-01-16T02:38:25;24.27;;;10.18;;
29422;SDS011;16399;51.686;8.684;2024-01-16T02:41:27;23.02;;;10.55;;
29422;SDS011;16399;51.686;8.684;2024-01-16T02:44:29;26.90;;;10.75;;
29422;SDS011;16399;51.686;8.684;2024-01-16T02:47:32;19.73;;;10.13;;
29422;SDS011;16399;51.686;8.684;2024-01-16T02:50:34;20.72;;;10.10;;
29422;SDS011;16399;51.686;8.684;2024-01-16T02:56:59;25.77;;;11.33;;
29422;SDS011;16399;51.686;8.684;2024-01-16T03:00:01;22.60;;;10.85;;
29422;SDS011;16399;51.686;8.684;2024-01-16T03:03:03;23.45;;;10.23;;
29422;SDS011;16399;51.686;8.684;2024-01-16T03:06:08;23.15;;;10.20;;
29422;SDS011;16399;51.686;8.684;2024-01-16T03:09:10;26.55;;;9.75;;
29422;SDS011;16399;51.686;8.684;2024-01-16T03:12:13;27.60;;;9.80;;
29422;SDS011;16399;51.686;8.684;2024-01-16T03:15:15;23.42;;;9.48;;
29422;SDS011;16399;51.686;8.684;2024-01-16T03:18:17;19.20;;;9.08;;
29422;SDS011;16399;51.686;8.684;2024-01-16T03:21:20;18.57;;;8.98;;
29422;SDS011;16399;51.686;8.684;2024-01-16T03:24:22;22.15;;;10.00;;
29422;SDS011;16399;51.686;8.684;2024-01-16T03:27:24;22.95;;;9.30;;
29422;SDS011;16399;51.686;8.684;2024-01-16T03:30:26;21.25;;;9.43;;
29422;SDS011;16399;51.686;8.684;2024-01-16T03:33:29;20.52;;;9.58;;
29422;SDS011;16399;51.686;8.684;2024-01-16T03:36:31;26.85;;;10.50;;
29422;SDS011;16399;51.686;8.684;2024-01-16T03:39:33;23.18;;;10.13;;
29422;SDS011;16399;51.686;8.684;2024-01-16T03:42:36;21.60;;;9.18;;
29422;SDS011;16399;51.686;8.684;2024-01-16T03:45:38;24.55;;;9.75;;
29422;SDS011;16399;51.686;8.684;2024-01-16T03:48:40;18.17;;;9.13;;
29422;SDS011;16399;51.686;8.684;2024-01-16T03:51:43;22.50;;;9.65;;
29422;SDS011;16399;51.686;8.684;2024-01-16T03:54:46;20.62;;;10.15;;
29422;SDS011;16399;51.686;8.684;2024-01-16T03:57:49;22.93;;;10.75;;
29422;SDS011;16399;51.686;8.684;2024-01-16T04:00:51;22.00;;;10.03;;
29422;SDS011;16399;51.686;8.684;2024-01-16T04:03:53;25.25;;;10.00;;
29422;SDS011;16399;51.686;8.684;2024-01-16T04:06:56;23.73;;;9.68;;
29422;SDS011;16399;51.686;8.684;2024-01-16T04:09:58;21.62;;;10.45;;
29422;SDS011;16399;51.686;8.684;2024-01-16T04:13:02;23.12;;;9.60;;
29422;SDS011;16399;51.686;8.684;2024-01-16T04:16:05;22.37;;;10.15;;
29422;SDS011;16399;51.686;8.684;2024-01-16T04:19:07;22.02;;;10.25;;
29422;SDS011;16399;51.686;8.684;2024-01-16T04:22:09;22.98;;;10.63;;
29422;SDS011;16399;51.686;8.684;2024-01-16T04:25:12;21.25;;;10.35;;
29422;SDS011;16399;51.686;8.684;2024-01-16T04:28:15;23.90;;;11.30;;
29422;SDS011;16399;51.686;8.684;2024-01-16T04:31:17;35.55;;;16.15;;
29422;SDS011;16399;51.686;8.684;2024-01-16T04:34:21;56.50;;;19.73;;
29422;SDS011;16399;51.686;8.684;2024-01-16T04:37:23;36.63;;;14.75;;
29422;SDS011;16399;51.686;8.684;2024-01-16T04:40:26;28.73;;;12.95;;
29422;SDS011;16399;51.686;8.684;2024-01-16T04:43:28;28.32;;;12.00;;
29422;SDS011;16399;51.686;8.684;2024-01-16T04:46:30;24.35;;;11.65;;
29422;SDS011;16399;51.686;8.684;2024-01-16T04:49:32;38.58;;;15.10;;
29422;SDS011;16399;51.686;8.684;2024-01-16T04:52:35;24.90;;;10.75;;
29422;SDS011;16399;51.686;8.684;2024-01-16T04:55:37;27.85;;;11.05;;
29422;SDS011;16399;51.686;8.684;2024-01-16T04:58:39;21.00;;;10.38;;
29422;SDS011;16399;51.686;8.684;2024-01-16T05:01:42;26.20;;;11.03;;
29422;SDS011;16399;51.686;8.684;2024-01-16T05:04:44;26.15;;;10.65;;
29422;SDS011;16399;51.686;8.684;2024-01-16T05:07:48;28.87;;;12.35;;
29422;SDS011;16399;51.686;8.684;2024-01-16T05:10:50;25.77;;;10.98;;
29422;SDS011;16399;51.686;8.684;2024-01-16T05:13:52;23.22;;;9.40;;
29422;SDS011;16399;51.686;8.684;2024-01-16T05:16:56;22.25;;;10.15;;
29422;SDS011;16399;51.686;8.684;2024-01-16T05:19:59;21.73;;;9.75;;
29422;SDS011;16399;51.686;8.684;2024-01-16T05:23:01;19.40;;;9.55;;
29422;SDS011;16399;51.686;8.684;2024-01-16T05:26:04;26.90;;;9.98;;
29422;SDS011;16399;51.686;8.684;2024-01-16T05:29:06;33.02;;;10.05;;
29422;SDS011;16399;51.686;8.684;2024-01-16T05:32:08;25.45;;;9.40;;
29422;SDS011;16399;51.686;8.684;2024-01-16T05:35:10;26.05;;;9.58;;
29422;SDS011;16399;51.686;8.684;2024-01-16T05:38:13;23.75;;;10.15;;
29422;SDS011;16399;51.686;8.684;2024-01-16T05:41:16;19.30;;;9.35;;
29422;SDS011;16399;51.686;8.684;2024-01-16T05:44:18;20.72;;;10.00;;
29422;SDS011;16399;51.686;8.684;2024-01-16T05:47:20;27.30;;;9.85;;
29422;SDS011;16399;51.686;8.684;2024-01-16T05:50:24;27.17;;;10.18;;
29422;SDS011;16399;51.686;8.684;2024-01-16T05:53:26;24.43;;;9.58;;
29422;SDS011;16399;51.686;8.684;2024-01-16T05:56:30;21.90;;;10.30;;
29422;SDS011;16399;51.686;8.684;2024-01-16T05:59:34;22.13;;;11.40;;
29422;SDS011;16399;51.686;8.684;2024-01-16T06:02:36;23.87;;;10.30;;
29422;SDS011;16399;51.686;8.684;2024-01-16T06:05:39;24.87;;;11.25;;
29422;SDS011;16399;51.686;8.684;2024-01-16T06:08:41;21.93;;;10.98;;
29422;SDS011;16399;51.686;8.684;2024-01-16T06:11:43;26.85;;;10.70;;
29422;SDS011;16399;51.686;8.684;2024-01-16T06:14:46;26.00;;;11.57;;
29422;SDS011;16399;51.686;8.684;2024-01-16T06:17:48;25.40;;;11.45;;
29422;SDS011;16399;51.686;8.684;2024-01-16T06:20:50;24.67;;;11.03;;
29422;SDS011;16399;51.686;8.684;2024-01-16T06:23:52;23.98;;;11.05;;
29422;SDS011;16399;51.686;8.684;2024-01-16T06:26:55;27.00;;;11.38;;
29422;SDS011;16399;51.686;8.684;2024-01-16T06:29:57;22.77;;;10.78;;
29422;SDS011;16399;51.686;8.684;2024-01-16T06:32:59;28.27;;;12.47;;
29422;SDS011;16399;51.686;8.684;2024-01-16T06:36:02;26.93;;;12.05;;
29422;SDS011;16399;51.686;8.684;2024-01-16T06:39:07;29.23;;;12.55;;
29422;SDS011;16399;51.686;8.684;2024-01-16T06:42:10;28.75;;;12.70;;
29422;SDS011;16399;51.686;8.684;2024-01-16T06:45:12;25.65;;;11.95;;
29422;SDS011;16399;51.686;8.684;2024-01-16T06:48:16;30.93;;;12.37;;
29422;SDS011;16399;51.686;8.684;2024-01-16T06:51:18;30.45;;;13.00;;
29422;SDS011;16399;51.686;8.684;2024-01-16T06:54:20;27.55;;;13.10;;
29422;SDS011;16399;51.686;8.684;2024-01-16T06:57:24;25.00;;;12.13;;
29422;SDS011;16399;51.686;8.684;2024-01-16T07:00:26;29.42;;;13.18;;
29422;SDS011;16399;51.686;8.684;2024-01-16T07:03:28;22.02;;;12.28;;
29422;SDS011;16399;51.686;8.684;2024-01-16T07:06:30;25.35;;;12.50;;
29422;SDS011;16399;51.686;8.684;2024-01-16T07:09:33;27.25;;;12.28;;
29422;SDS011;16399;51.686;8.684;2024-01-16T07:12:35;25.10;;;12.05;;
29422;SDS011;16399;51.686;8.684;2024-01-16T07:15:37;27.05;;;11.97;;
29422;SDS011;16399;51.686;8.684;2024-01-16T07:18:40;26.82;;;13.35;;
29422;SDS011;16399;51.686;8.684;2024-01-16T07:21:42;26.10;;;12.20;;
29422;SDS011;16399;51.686;8.684;2024-01-16T07:24:45;28.52;;;12.03;;
29422;SDS011;16399;51.686;8.684;2024-01-16T07:27:47;26.05;;;11.70;;
29422;SDS011;16399;51.686;8.684;2024-01-16T07:30:52;26.30;;;12.58;;
29422;SDS011;16399;51.686;8.684;2024-01-16T07:33:55;28.23;;;12.53;;
29422;SDS011;16399;51.686;8.684;2024-01-16T07:36:57;27.80;;;12.70;;
29422;SDS011;16399;51.686;8.684;2024-01-16T07:39:59;27.75;;;12.63;;
29422;SDS011;16399;51.686;8.684;2024-01-16T07:43:02;22.73;;;11.93;;
29422;SDS011;16399;51.686;8.684;2024-01-16T07:46:04;25.65;;;12.15;;
29422;SDS011;16399;51.686;8.684;2024-01-16T07:49:06;25.45;;;12.53;;
29422;SDS011;16399;51.686;8.684;2024-01-16T07:52:09;23.15;;;12.65;;
29422;SDS011;16399;51.686;8.684;2024-01-16T07:55:12;26.10;;;10.97;;
29422;SDS011;16399;51.686;8.684;2024-01-16T07:58:15;21.57;;;10.70;;
29422;SDS011;16399;51.686;8.684;2024-01-16T08:01:17;23.52;;;12.13;;
29422;SDS011;16399;51.686;8.684;2024-01-16T08:04:21;29.20;;;11.48;;
29422;SDS011;16399;51.686;8.684;2024-01-16T08:07:24;25.43;;;11.55;;
29422;SDS011;16399;51.686;8.684;2024-01-16T08:10:26;29.60;;;11.55;;
29422;SDS011;16399;51.686;8.684;2024-01-16T08:13:28;19.20;;;10.68;;
29422;SDS011;16399;51.686;8.684;2024-01-16T08:16:31;25.32;;;10.32;;
29422;SDS011;16399;51.686;8.684;2024-01-16T08:19:33;24.40;;;10.48;;
29422;SDS011;16399;51.686;8.684;2024-01-16T08:22:36;25.17;;;10.85;;
29422;SDS011;16399;51.686;8.684;2024-01-16T08:25:39;18.10;;;10.05;;
29422;SDS011;16399;51.686;8.684;2024-01-16T08:28:41;28.27;;;11.25;;
29422;SDS011;16399;51.686;8.684;2024-01-16T08:31:43;17.40;;;9.25;;
29422;SDS011;16399;51.686;8.684;2024-01-16T08:34:45;17.00;;;9.28;;
29422;SDS011;16399;51.686;8.684;2024-01-16T08:37:48;19.02;;;9.95;;
29422;SDS011;16399;51.686;8.684;2024-01-16T08:40:50;16.52;;;8.68;;
29422;SDS011;16399;51.686;8.684;2024-01-16T08:43:53;20.65;;;8.88;;
29422;SDS011;16399;51.686;8.684;2024-01-16T08:46:55;19.50;;;9.28;;
29422;SDS011;16399;51.686;8.684;2024-01-16T08:49:59;16.67;;;8.35;;
29422;SDS011;16399;51.686;8.684;2024-01-16T08:53:02;20.35;;;8.40;;
29422;SDS011;16399;51.686;8.684;2024-01-16T08:56:05;21.07;;;8.88;;
29422;SDS011;16399;51.686;8.684;2024-01-16T08:59:10;16.60;;;8.75;;
29422;SDS011;16399;51.686;8.684;2024-01-16T09:02:12;17.98;;;9.28;;
29422;SDS011;16399;51.686;8.684;2024-01-16T09:05:14;21.57;;;9.23;;
29422;SDS011;16399;51.686;8.684;2024-01-16T09:08:17;20.17;;;8.23;;
29422;SDS011;16399;51.686;8.684;2024-01-16T09:11:19;18.95;;;9.30;;
29422;SDS011;16399;51.686;8.684;2024-01-16T09:14:22;17.80;;;8.75;;
29422;SDS011;16399;51.686;8.684;2024-01-16T09:17:24;19.55;;;9.03;;
29422;SDS011;16399;51.686;8.684;2024-01-16T09:20:27;15.68;;;8.58;;
29422;SDS011;16399;51.686;8.684;2024-01-16T09:23:29;19.27;;;8.90;;
29422;SDS011;16399;51.686;8.684;2024-01-16T09:26:31;18.52;;;9.10;;
29422;SDS011;16399;51.686;8.684;2024-01-16T09:29:33;15.05;;;8.63;;
29422;SDS011;16399;51.686;8.684;2024-01-16T09:32:36;19.55;;;9.65;;
29422;SDS011;16399;51.686;8.684;2024-01-16T09:35:38;16.60;;;8.88;;
29422;SDS011;16399;51.686;8.684;2024-01-16T09:38:40;19.20;;;8.93;;
29422;SDS011;16399;51.686;8.684;2024-01-16T09:41:44;17.80;;;8.68;;
29422;SDS011;16399;51.686;8.684;2024-01-16T09:44:47;19.57;;;8.45;;
29422;SDS011;16399;51.686;8.684;2024-01-16T09:47:51;21.25;;;8.95;;
29422;SDS011;16399;51.686;8.684;2024-01-16T09:50:54;18.35;;;8.00;;
29422;SDS011;16399;51.686;8.684;2024-01-16T09:53:56;17.73;;;7.87;;
29422;SDS011;16399;51.686;8.684;2024-01-16T09:56:59;18.85;;;7.35;;
29422;SDS011;16399;51.686;8.684;2024-01-16T10:00:04;16.75;;;7.30;;
29422;SDS011;16399;51.686;8.684;2024-01-16T10:03:15;17.80;;;7.30;;
29422;SDS011;16399;51.686;8.684;2024-01-16T10:06:15;15.10;;;6.87;;
29422;SDS011;16399;51.686;8.684;2024-01-16T10:09:20;16.35;;;6.70;;
29422;SDS011;16399;51.686;8.684;2024-01-16T10:12:22;22.73;;;7.12;;
29422;SDS011;16399;51.686;8.684;2024-01-16T10:15:25;16.25;;;6.92;;
29422;SDS011;16399;51.686;8.684;2024-01-16T10:18:28;15.08;;;6.25;;
29422;SDS011;16399;51.686;8.684;2024-01-16T10:21:31;17.60;;;6.70;;
29422;SDS011;16399;51.686;8.684;2024-01-16T10:24:33;16.10;;;6.12;;
29422;SDS011;16399;51.686;8.684;2024-01-16T10:27:36;13.28;;;5.92;;
29422;SDS011;16399;51.686;8.684;2024-01-16T10:30:39;16.77;;;5.45;;
29422;SDS011;16399;51.686;8.684;2024-01-16T10:33:42;18.07;;;5.65;;
29422;SDS011;16399;51.686;8.684;2024-01-16T10:36:44;12.90;;;5.03;;
29422;SDS011;16399;51.686;8.684;2024-01-16T10:39:49;11.93;;;4.67;;
29422;SDS011;16399;51.686;8.684;2024-01-16T10:43:00;15.75;;;5.25;;
29422;SDS011;16399;51.686;8.684;2024-01-16T10:46:09;16.75;;;4.97;;
29422;SDS011;16399;51.686;8.684;2024-01-16T10:49:13;13.50;;;5.08;;
29422;SDS011;16399;51.686;8.684;2024-01-16T10:52:15;16.07;;;4.25;;
29422;SDS011;16399;51.686;8.684;2024-01-16T10:55:21;12.82;;;4.08;;
29422;SDS011;16399;51.686;8.684;2024-01-16T11:01:30;18.82;;;4.65;;
29422;SDS011;16399;51.686;8.684;2024-01-16T11:04:32;12.43;;;4.85;;
29422;SDS011;16399;51.686;8.684;2024-01-16T11:07:35;19.37;;;5.30;;
29422;SDS011;16399;51.686;8.684;2024-01-16T11:10:40;15.83;;;4.00;;
29422;SDS011;16399;51.686;8.684;2024-01-16T11:13:42;17.70;;;3.55;;
29422;SDS011;16399;51.686;8.684;2024-01-16T11:16:46;10.35;;;3.55;;
29422;SDS011;16399;51.686;8.684;2024-01-16T11:19:51;15.32;;;3.75;;
29422;SDS011;16399;51.686;8.684;2024-01-16T11:22:53;13.45;;;3.70;;
29422;SDS011;16399;51.686;8.684;2024-01-16T11:25:58;12.98;;;3.30;;
29422;SDS011;16399;51.686;8.684;2024-01-16T11:29:00;11.75;;;2.58;;
29422;SDS011;16399;51.686;8.684;2024-01-16T11:32:32;16.23;;;2.87;;
29422;SDS011;16399;51.686;8.684;2024-01-16T11:35:37;16.42;;;2.65;;
29422;SDS011;16399;51.686;8.684;2024-01-16T11:38:41;11.10;;;2.83;;
29422;SDS011;16399;51.686;8.684;2024-01-16T11:41:55;15.30;;;3.77;;
29422;SDS011;16399;51.686;8.684;2024-01-16T11:44:55;11.65;;;2.30;;
29422;SDS011;16399;51.686;8.684;2024-01-16T11:48:10;11.03;;;2.02;;
29422;SDS011;16399;51.686;8.684;2024-01-16T11:51:22;7.03;;;2.12;;
29422;SDS011;16399;51.686;8.684;2024-01-16T11:54:25;10.70;;;2.50;;
29422;SDS011;16399;51.686;8.684;2024-01-16T12:00:40;5.62;;;1.87;;
29422;SDS011;16399;51.686;8.684;2024-01-16T12:03:43;9.30;;;2.27;;
29422;SDS011;16399;51.686;8.684;2024-01-16T12:06:45;12.25;;;2.50;;
29422;SDS011;16399;51.686;8.684;2024-01-16T12:09:59;11.50;;;2.20;;
29422;SDS011;16399;51.686;8.684;2024-01-16T12:13:01;12.88;;;2.17;;
29422;SDS011;16399;51.686;8.684;2024-01-16T12:16:04;12.37;;;2.15;;
29422;SDS011;16399;51.686;8.684;2024-01-16T12:19:10;10.35;;;2.72;;
29422;SDS011;16399;51.686;8.684;2024-01-16T12:22:15;8.95;;;2.20;;
29422;SDS011;16399;51.686;8.684;2024-01-16T12:25:22;5.45;;;1.77;;
29422;SDS011;16399;51.686;8.684;2024-01-16T12:28:25;13.13;;;2.50;;
29422;SDS011;16399;51.686;8.684;2024-01-16T12:31:28;10.05;;;2.08;;
29422;SDS011;16399;51.686;8.684;2024-01-16T12:34:30;7.92;;;1.65;;
29422;SDS011;16399;51.686;8.684;2024-01-16T12:37:33;6.53;;;2.05;;
29422;SDS011;16399;51.686;8.684;2024-01-16T12:40:36;9.40;;;1.80;;
29422;SDS011;16399;51.686;8.684;2024-01-16T12:43:40;9.60;;;1.45;;
29422;SDS011;16399;51.686;8.684;2024-01-16T12:46:43;7.12;;;1.70;;
29422;SDS011;16399;51.686;8.684;2024-01-16T12:49:47;8.25;;;1.95;;
29422;SDS011;16399;51.686;8.684;2024-01-16T12:52:50;7.75;;;1.90;;
29422;SDS011;16399;51.686;8.684;2024-01-16T12:56:01;11.53;;;1.82;;
29422;SDS011;16399;51.686;8.684;2024-01-16T12:59:08;11.95;;;1.90;;
29422;SDS011;16399;51.686;8.684;2024-01-16T13:02:06;11.15;;;1.98;;
29422;SDS011;16399;51.686;8.684;2024-01-16T13:05:08;7.00;;;2.08;;
29422;SDS011;16399;51.686;8.684;2024-01-16T13:08:17;9.98;;;2.02;;
29422;SDS011;16399;51.686;8.684;2024-01-16T13:11:20;10.88;;;1.75;;
29422;SDS011;16399;51.686;8.684;2024-01-16T13:14:22;10.82;;;2.20;;
29422;SDS011;16399;51.686;8.684;2024-01-16T13:17:25;9.38;;;2.17;;
29422;SDS011;16399;51.686;8.684;2024-01-16T13:20:27;7.72;;;1.92;;
29422;SDS011;16399;51.686;8.684;2024-01-16T13:23:31;9.53;;;1.90;;
29422;SDS011;16399;51.686;8.684;2024-01-16T13:26:33;9.73;;;2.02;;
29422;SDS011;16399;51.686;8.684;2024-01-16T13:29:36;9.83;;;2.65;;
29422;SDS011;16399;51.686;8.684;2024-01-16T13:32:40;8.13;;;1.67;;
29422;SDS011;16399;51.686;8.684;2024-01-16T13:35:47;15.20;;;2.17;;
29422;SDS011;16399;51.686;8.684;2024-01-16T13:38:50;11.75;;;2.60;;
29422;SDS011;16399;51.686;8.684;2024-01-16T13:41:52;10.95;;;1.95;;
29422;SDS011;16399;51.686;8.684;2024-01-16T13:44:55;8.70;;;2.10;;
29422;SDS011;16399;51.686;8.684;2024-01-16T13:47:57;6.47;;;1.70;;
29422;SDS011;16399;51.686;8.684;2024-01-16T13:51:01;5.00;;;2.02;;
29422;SDS011;16399;51.686;8.684;2024-01-16T13:54:04;5.85;;;1.90;;
29422;SDS011;16399;51.686;8.684;2024-01-16T13:57:07;5.53;;;1.75;;
29422;SDS011;16399;51.686;8.684;2024-01-16T14:00:10;12.40;;;2.20;;
29422;SDS011;16399;51.686;8.684;2024-01-16T14:03:14;10.03;;;2.10;;
29422;SDS011;16399;51.686;8.684;2024-01-16T14:06:17;8.88;;;1.82;;
29422;SDS011;16399;51.686;8.684;2024-01-16T14:09:20;10.98;;;3.05;;
29422;SDS011;16399;51.686;8.684;2024-01-16T14:12:23;9.50;;;2.10;;
29422;SDS011;16399;51.686;8.684;2024-01-16T14:15:26;8.75;;;2.20;;
29422;SDS011;16399;51.686;8.684;2024-01-16T14:18:29;8.20;;;2.05;;
29422;SDS011;16399;51.686;8.684;2024-01-16T14:21:31;8.63;;;2.35;;
29422;SDS011;16399;51.686;8.684;2024-01-16T14:24:34;7.22;;;2.12;;
29422;SDS011;16399;51.686;8.684;2024-01-16T14:27:38;6.28;;;2.08;;
29422;SDS011;16399;51.686;8.684;2024-01-16T14:30:42;8.40;;;2.25;;
29422;SDS011;16399;51.686;8.684;2024-01-16T14:33:45;8.93;;;1.98;;
29422;SDS011;16399;51.686;8.684;2024-01-16T14:36:49;8.98;;;2.70;;
29422;SDS011;16399;51.686;8.684;2024-01-16T14:39:51;9.75;;;2.52;;
29422;SDS011;16399;51.686;8.684;2024-01-16T14:42:55;8.95;;;2.37;;
29422;SDS011;16399;51.686;8.684;2024-01-16T14:49:00;7.55;;;2.22;;
29422;SDS011;16399;51.686;8.684;2024-01-16T14:52:02;9.00;;;2.08;;
29422;SDS011;16399;51.686;8.684;2024-01-16T14:55:07;7.37;;;2.42;;
29422;SDS011;16399;51.686;8.684;2024-01-16T14:58:09;8.80;;;2.30;;
29422;SDS011;16399;51.686;8.684;2024-01-16T15:01:12;6.10;;;1.95;;
29422;SDS011;16399;51.686;8.684;2024-01-16T15:04:14;6.62;;;1.85;;
29422;SDS011;16399;51.686;8.684;2024-01-16T15:07:16;7.75;;;2.67;;
29422;SDS011;16399;51.686;8.684;2024-01-16T15:10:19;13.13;;;2.65;;
29422;SDS011;16399;51.686;8.684;2024-01-16T15:13:22;7.90;;;2.08;;
29422;SDS011;16399;51.686;8.684;2024-01-16T15:16:24;11.00;;;2.70;;
29422;SDS011;16399;51.686;8.684;2024-01-16T15:19:26;10.28;;;2.08;;
29422;SDS011;16399;51.686;8.684;2024-01-16T15:22:29;8.93;;;1.92;;
29422;SDS011;16399;51.686;8.684;2024-01-16T15:25:32;9.28;;;2.25;;
29422;SDS011;16399;51.686;8.684;2024-01-16T15:28:34;8.65;;;1.98;;
29422;SDS011;16399;51.686;8.684;2024-01-16T15:31:37;7.60;;;2.30;;
29422;SDS011;16399;51.686;8.684;2024-01-16T15:34:39;12.47;;;2.52;;
29422;SDS011;16399;51.686;8.684;2024-01-16T15:37:41;15.23;;;2.17;;
29422;SDS011;16399;51.686;8.684;2024-01-16T15:40:44;8.63;;;2.27;;
29422;SDS011;16399;51.686;8.684;2024-01-16T15:43:47;8.53;;;3.08;;
29422;SDS011;16399;51.686;8.684;2024-01-16T15:46:59;6.90;;;2.45;;
29422;SDS011;16399;51.686;8.684;2024-01-16T15:50:03;9.95;;;3.17;;
29422;SDS011;16399;51.686;8.684;2024-01-16T15:53:06;12.30;;;2.40;;
29422;SDS011;16399;51.686;8.684;2024-01-16T15:56:09;9.35;;;2.70;;
29422;SDS011;16399;51.686;8.684;2024-01-16T15:59:11;8.48;;;2.60;;
29422;SDS011;16399;51.686;8.684;2024-01-16T16:02:14;10.13;;;2.60;;
29422;SDS011;16399;51.686;8.684;2024-01-16T16:05:16;8.53;;;2.45;;
29422;SDS011;16399;51.686;8.684;2024-01-16T16:08:19;10.23;;;2.50;;
29422;SDS011;16399;51.686;8.684;2024-01-16T16:11:21;12.13;;;4.25;;
29422;SDS011;16399;51.686;8.684;2024-01-16T16:14:24;14.53;;;5.75;;
29422;SDS011;16399;51.686;8.684;2024-01-16T16:17:27;13.32;;;3.95;;
29422;SDS011;16399;51.686;8.684;2024-01-16T16:20:30;9.85;;;2.52;;
29422;SDS011;16399;51.686;8.684;2024-01-16T16:23:32;6.87;;;2.27;;
29422;SDS011;16399;51.686;8.684;2024-01-16T16:26:35;12.60;;;3.40;;
29422;SDS011;16399;51.686;8.684;2024-01-16T16:29:38;15.83;;;3.08;;
29422;SDS011;16399;51.686;8.684;2024-01-16T16:32:41;7.45;;;2.52;;
29422;SDS011;16399;51.686;8.684;2024-01-16T16:35:44;9.50;;;2.80;;
29422;SDS011;16399;51.686;8.684;2024-01-16T16:38:46;10.38;;;3.08;;
29422;SDS011;16399;51.686;8.684;2024-01-16T16:41:48;7.40;;;2.27;;
29422;SDS011;16399;51.686;8.684;2024-01-16T16:44:51;14.20;;;2.80;;
29422;SDS011;16399;51.686;8.684;2024-01-16T16:47:55;12.82;;;2.42;;
29422;SDS011;16399;51.686;8.684;2024-01-16T16:50:58;7.58;;;2.35;;
29422;SDS011;16399;51.686;8.684;2024-01-16T16:54:00;7.87;;;2.30;;
29422;SDS011;16399;51.686;8.684;2024-01-16T16:57:03;13.88;;;3.02;;
29422;SDS011;16399;51.686;8.684;2024-01-16T17:00:05;7.22;;;2.12;;
29422;SDS011;16399;51.686;8.684;2024-01-16T17:03:09;13.87;;;2.83;;
29422;SDS011;16399;51.686;8.684;2024-01-16T17:06:11;7.42;;;2.62;;
29422;SDS011;16399;51.686;8.684;2024-01-16T17:09:16;10.15;;;2.62;;
29422;SDS011;16399;51.686;8.684;2024-01-16T17:12:20;6.58;;;1.70;;
29422;SDS011;16399;51.686;8.684;2024-01-16T17:15:22;7.83;;;2.95;;
29422;SDS011;16399;51.686;8.684;2024-01-16T17:18:30;8.25;;;2.70;;
29422;SDS011;16399;51.686;8.684;2024-01-16T17:21:30;9.30;;;2.80;;
29422;SDS011;16399;51.686;8.684;2024-01-16T17:24:32;8.38;;;2.60;;
29422;SDS011;16399;51.686;8.684;2024-01-16T17:27:35;7.15;;;2.67;;
29422;SDS011;16399;51.686;8.684;2024-01-16T17:30:38;10.75;;;2.75;;
29422;SDS011;16399;51.686;8.684;2024-01-16T17:33:41;14.35;;;3.37;;
29422;SDS011;16399;51.686;8.684;2024-01-16T17:36:43;8.00;;;2.58;;
29422;SDS011;16399;51.686;8.684;2024-01-16T17:39:46;14.73;;;3.75;;
29422;SDS011;16399;51.686;8.684;2024-01-16T17:42:49;8.28;;;3.60;;
29422;SDS011;16399;51.686;8.684;2024-01-16T17:45:51;11.33;;;3.37;;
29422;SDS011;16399;51.686;8.684;2024-01-16T17:48:54;10.78;;;3.60;;
29422;SDS011;16399;51.686;8.684;2024-01-16T17:51:56;10.82;;;3.58;;
29422;SDS011;16399;51.686;8.684;2024-01-16T17:54:59;8.13;;;3.05;;
29422;SDS011;16399;51.686;8.684;2024-01-16T17:58:01;12.90;;;3.40;;
29422;SDS011;16399;51.686;8.684;2024-01-16T18:01:05;15.20;;;3.45;;
29422;SDS011;16399;51.686;8.684;2024-01-16T18:04:09;9.78;;;3.30;;
29422;SDS011;16399;51.686;8.684;2024-01-16T18:07:13;7.85;;;3.17;;
29422;SDS011;16399;51.686;8.684;2024-01-16T18:10:16;10.43;;;3.30;;
29422;SDS011;16399;51.686;8.684;2024-01-16T18:13:20;10.98;;;3.02;;
29422;SDS011;16399;51.686;8.684;2024-01-16T18:16:22;10.08;;;3.47;;
29422;SDS011;16399;51.686;8.684;2024-01-16T18:19:26;12.58;;;3.67;;
29422;SDS011;16399;51.686;8.684;2024-01-16T18:22:32;9.23;;;3.50;;